Time;durP1;ratioP1;P1;durP2;ratioP2;P2;SDS_P1;SDS_P2;PMS_P1;PMS_P2;Temp;Humidity;BMP_temperature;BMP_pressure;BME280_temperature;BME280_humidity;BME280_pressure;Samples;Min_cycle;Max_cycle;Signal;HPM_P1;HPM_P2
2024/01/12 00:01:24;;;;;;;5.97;1.70;;;;;;;12.01;45.24;103545.72;5047341;28;20059;-72
2024/01/12 00:03:50;;;;;;;5.20;1.73;;;;;;;12.19;45.53;103547.06;5046117;28;20074;-73
2024/01/12 00:06:15;;;;;;;11.83;2.60;;;;;;;12.45;44.35;103550.34;5047489;28;20025;-72
2024/01/12 00:08:40;;;;;;;6.97;2.03;;;;;;;12.30;44.71;103550.84;5048188;28;20033;-73
2024/01/12 00:11:09;;;;;;;8.67;1.77;;;;;;;11.91;45.89;103546.28;5048183;28;20033;-73
2024/01/12 00:13:35;;;;;;;10.87;1.83;;;;;;;12.70;44.67;103557.09;5043559;28;20091;-73
2024/01/12 00:16:07;;;;;;;5.50;1.67;;;;;;;13.20;43.95;103547.72;5027337;28;20552;-72
2024/01/12 00:18:33;;;;;;;9.07;2.70;;;;;;;12.73;43.82;103557.19;5038677;28;20025;-71
2024/01/12 00:20:58;;;;;;;6.90;1.70;;;;;;;12.49;44.19;103551.34;5046016;28;20025;-72
2024/01/12 00:23:24;;;;;;;9.97;1.60;;;;;;;12.46;44.36;103551.22;5047719;28;20048;-72
2024/01/12 00:25:49;;;;;;;5.00;1.77;;;;;;;12.05;45.44;103550.19;5046433;28;20021;-72
2024/01/12 00:28:14;;;;;;;7.33;2.00;;;;;;;12.83;43.67;103546.88;5047831;28;20059;-72
2024/01/12 00:30:40;;;;;;;6.77;2.30;;;;;;;13.43;42.54;103537.75;5046117;28;20033;-72
2024/01/12 00:33:05;;;;;;;7.30;3.10;;;;;;;13.27;42.10;103539.16;5047783;28;20124;-72
2024/01/12 00:35:31;;;;;;;9.10;1.97;;;;;;;13.23;42.47;103537.31;5050118;28;20111;-72
2024/01/12 00:37:57;;;;;;;8.87;1.93;;;;;;;13.15;42.69;103528.38;5050324;28;20025;-72
2024/01/12 00:40:22;;;;;;;3.13;1.60;;;;;;;13.50;42.10;103530.91;5050401;28;20067;-72
2024/01/12 00:42:50;;;;;;;8.07;1.87;;;;;;;12.95;42.57;103536.69;5047187;28;20325;-72
2024/01/12 00:45:15;;;;;;;10.57;2.37;;;;;;;13.09;42.51;103536.09;5031691;28;20111;-72
2024/01/12 00:47:41;;;;;;;4.20;1.70;;;;;;;13.14;42.51;103529.22;5052000;28;20036;-72
2024/01/12 00:50:06;;;;;;;12.37;1.90;;;;;;;13.17;42.61;103535.41;5050784;28;20052;-72
2024/01/12 00:52:32;;;;;;;8.67;1.63;;;;;;;12.09;44.80;103537.16;5050572;28;20032;-72
2024/01/12 00:54:59;;;;;;;3.47;1.57;;;;;;;11.58;45.64;103557.59;5050721;28;20032;-72
2024/01/12 00:57:24;;;;;;;8.23;1.70;;;;;;;12.69;44.30;103549.19;5049465;28;20028;-72
2024/01/12 00:59:50;;;;;;;5.20;1.50;;;;;;;13.03;42.91;103542.13;5049425;28;20070;-72
2024/01/12 01:02:15;;;;;;;5.53;2.57;;;;;;;13.03;42.90;103553.50;5050194;28;20036;-71
2024/01/12 01:04:40;;;;;;;7.90;2.00;;;;;;;13.34;42.25;103551.56;5050090;28;20070;-72
2024/01/12 01:07:06;;;;;;;12.40;2.77;;;;;;;13.43;41.79;103544.78;5049397;28;20496;-72
2024/01/12 01:09:31;;;;;;;3.67;1.70;;;;;;;13.68;41.49;103552.31;5049380;28;20119;-72
2024/01/12 01:11:57;;;;;;;6.13;2.17;;;;;;;13.85;41.32;103549.13;5050845;28;20175;-74
2024/01/12 01:14:24;;;;;;;4.47;2.00;;;;;;;13.43;41.97;103545.66;5050642;28;20060;-74
2024/01/12 01:16:53;;;;;;;2.60;2.30;;;;;;;13.71;41.17;103557.63;5046478;28;20147;-73
2024/01/12 01:19:20;;;;;;;10.17;2.57;;;;;;;13.19;42.13;103560.00;5039291;28;20017;-73
2024/01/12 01:21:45;;;;;;;10.77;2.37;;;;;;;13.17;42.16;103566.06;5060872;28;20029;-73
2024/01/12 01:24:10;;;;;;;4.87;1.93;;;;;;;13.44;41.65;103552.69;5051319;28;20033;-73
2024/01/12 01:26:36;;;;;;;8.33;1.87;;;;;;;13.41;41.67;103552.63;5048898;28;20021;-73
2024/01/12 01:29:01;;;;;;;6.20;1.87;;;;;;;12.90;42.35;103554.09;5049920;28;20108;-73
2024/01/12 01:31:27;;;;;;;9.57;2.73;;;;;;;13.02;42.66;103546.50;5046050;28;20052;-72
2024/01/12 01:33:52;;;;;;;8.93;2.33;;;;;;;12.91;42.62;103553.22;5037327;28;20133;-73
2024/01/12 01:36:17;;;;;;;2.63;1.70;;;;;;;13.43;41.71;103552.66;5049282;28;20021;-72
2024/01/12 01:38:43;;;;;;;9.60;2.10;;;;;;;13.42;41.42;103553.50;5046402;28;20465;-72
2024/01/12 01:41:08;;;;;;;12.77;4.10;;;;;;;13.39;41.47;103544.72;5039154;28;20504;-73
2024/01/12 01:43:33;;;;;;;9.90;3.50;;;;;;;13.10;42.13;103551.03;5049214;28;20033;-73
2024/01/12 01:46:00;;;;;;;7.87;2.70;;;;;;;13.20;41.96;103558.25;5048454;28;20519;-73
2024/01/12 01:48:25;;;;;;;5.87;2.93;;;;;;;12.53;43.40;103561.94;5048820;28;20029;-72
2024/01/12 01:50:52;;;;;;;7.83;3.20;;;;;;;13.09;42.44;103555.38;5050360;28;20035;-73
2024/01/12 01:53:18;;;;;;;4.57;2.27;;;;;;;12.86;42.44;103562.72;5050458;28;20036;-73
2024/01/12 01:55:44;;;;;;;11.93;3.07;;;;;;;12.73;42.95;103549.31;5048769;28;20028;-72
2024/01/12 01:58:11;;;;;;;16.10;4.17;;;;;;;12.50;43.46;103539.97;5048783;28;20112;-73
2024/01/12 02:00:38;;;;;;;11.83;3.00;;;;;;;12.98;42.53;103539.41;5048991;28;20499;-72
2024/01/12 02:03:04;;;;;;;4.77;3.17;;;;;;;12.37;44.06;103537.03;5050140;28;20130;-73
2024/01/12 02:05:30;;;;;;;7.70;2.37;;;;;;;12.32;43.96;103549.16;5048070;28;20480;-72
2024/01/12 02:07:56;;;;;;;9.17;2.17;;;;;;;12.42;43.74;103549.38;5034415;28;20087;-73
2024/01/12 02:10:22;;;;;;;23.80;3.33;;;;;;;12.21;43.63;103547.97;5047149;28;20040;-73
2024/01/12 02:12:48;;;;;;;10.90;2.77;;;;;;;12.31;43.85;103557.88;5050230;28;20100;-73
2024/01/12 02:15:14;;;;;;;7.97;2.57;;;;;;;12.50;43.45;103547.84;5049943;28;20033;-72
2024/01/12 02:17:41;;;;;;;6.00;3.33;;;;;;;12.82;42.89;103550.38;5049297;28;20024;-73
2024/01/12 02:20:07;;;;;;;8.73;2.70;;;;;;;12.48;43.21;103554.78;5048845;28;20035;-72
2024/01/12 02:22:32;;;;;;;6.77;2.80;;;;;;;13.10;42.01;103548.41;5048299;28;20033;-73
2024/01/12 02:24:58;;;;;;;6.53;2.20;;;;;;;12.98;42.33;103557.78;5049677;28;20100;-72
2024/01/12 02:27:24;;;;;;;6.33;2.10;;;;;;;12.93;42.35;103548.00;5048758;28;20568;-73
2024/01/12 02:29:53;;;;;;;5.77;3.10;;;;;;;12.85;42.70;103551.31;5047582;28;20048;-72
2024/01/12 02:32:18;;;;;;;9.33;2.93;;;;;;;13.31;41.91;103551.50;5039465;28;20056;-72
2024/01/12 02:34:44;;;;;;;7.33;2.73;;;;;;;13.05;42.29;103558.78;5049400;28;20248;-73
2024/01/12 02:37:09;;;;;;;7.87;3.10;;;;;;;13.57;41.03;103545.94;5049043;28;20043;-72
2024/01/12 02:39:34;;;;;;;10.23;2.70;;;;;;;13.10;42.10;103556.28;5049350;28;20029;-73
2024/01/12 02:42:00;;;;;;;9.47;3.13;;;;;;;13.07;42.19;103546.59;5048534;28;20029;-72
2024/01/12 02:44:25;;;;;;;5.57;3.03;;;;;;;13.03;41.90;103550.88;5047610;28;20032;-73
2024/01/12 02:46:51;;;;;;;10.97;2.33;;;;;;;13.31;41.78;103541.00;5048723;28;20131;-72
2024/01/12 02:49:16;;;;;;;5.03;2.30;;;;;;;13.02;41.93;103548.22;5047947;28;20028;-72
2024/01/12 02:51:42;;;;;;;4.40;2.10;;;;;;;12.64;43.15;103541.22;5047013;28;20404;-73
2024/01/12 02:54:07;;;;;;;3.80;2.23;;;;;;;13.05;42.10;103528.16;5048436;28;20079;-72
2024/01/12 02:56:32;;;;;;;5.40;2.33;;;;;;;13.20;41.78;103531.97;5047020;28;20025;-72
2024/01/12 02:58:58;;;;;;;7.47;1.83;;;;;;;12.99;42.63;103532.41;5043449;28;20029;-72
2024/01/12 03:01:23;;;;;;;7.00;1.87;;;;;;;13.10;42.08;103522.13;5038424;28;20487;-72
2024/01/12 03:03:49;;;;;;;6.17;1.73;;;;;;;12.60;43.25;103531.50;5047865;28;20048;-73
2024/01/12 03:06:14;;;;;;;4.50;1.70;;;;;;;12.98;42.74;103520.09;5048273;28;20025;-73
2024/01/12 03:08:40;;;;;;;15.50;2.03;;;;;;;13.28;41.75;103514.63;5047869;28;20025;-72
2024/01/12 03:11:06;;;;;;;6.23;1.73;;;;;;;13.24;42.07;103512.81;5048330;28;20029;-72
2024/01/12 03:13:35;;;;;;;4.03;2.10;;;;;;;13.19;42.18;103519.72;5046255;28;20465;-72
2024/01/12 03:16:00;;;;;;;4.70;1.90;;;;;;;13.12;42.34;103517.78;5048227;28;20043;-72
2024/01/12 03:18:27;;;;;;;8.20;1.90;;;;;;;13.28;42.09;103519.91;5047844;28;20120;-73
2024/01/12 03:20:52;;;;;;;4.77;2.07;;;;;;;12.88;43.10;103513.75;5063234;28;20033;-73
2024/01/12 03:23:18;;;;;;;5.90;2.00;;;;;;;13.45;41.83;103508.88;5049429;28;20039;-73
2024/01/12 03:25:43;;;;;;;9.27;2.33;;;;;;;13.19;42.04;103511.84;5048761;28;20118;-73
2024/01/12 03:28:08;;;;;;;10.20;2.17;;;;;;;13.74;41.05;103514.75;5047067;28;20063;-73
2024/01/12 03:30:34;;;;;;;5.13;1.80;;;;;;;13.59;41.37;103510.06;5047142;28;20036;-73
2024/01/12 03:33:00;;;;;;;3.40;1.80;;;;;;;13.69;41.08;103508.50;5048502;28;20120;-73
2024/01/12 03:35:25;;;;;;;3.80;1.50;;;;;;;13.43;41.64;103502.72;5048932;28;20404;-72
2024/01/12 03:37:50;;;;;;;4.97;1.93;;;;;;;13.81;40.62;103505.25;5047375;28;20056;-72
2024/01/12 03:40:16;;;;;;;6.70;1.97;;;;;;;14.00;40.63;103496.81;5044368;28;20037;-73
2024/01/12 03:42:41;;;;;;;10.93;2.23;;;;;;;13.51;41.37;103501.16;5047366;28;20087;-73
2024/01/12 03:45:08;;;;;;;6.57;1.60;;;;;;;13.99;40.53;103505.56;5042479;28;20054;-73
2024/01/12 03:47:33;;;;;;;10.23;2.93;;;;;;;13.17;42.10;103501.28;5044178;28;20083;-73
2024/01/12 03:49:58;;;;;;;3.70;1.63;;;;;;;12.96;42.58;103501.69;5048868;28;20443;-73
2024/01/12 03:52:24;;;;;;;11.83;2.63;;;;;;;13.10;42.22;103493.25;5047361;28;20443;-73
2024/01/12 03:54:49;;;;;;;7.77;2.17;;;;;;;13.19;42.11;103489.06;5044577;28;20061;-73
2024/01/12 03:57:15;;;;;;;15.33;3.37;;;;;;;13.42;41.53;103488.69;5047315;28;20029;-72
2024/01/12 03:59:40;;;;;;;5.83;1.50;;;;;;;13.24;41.73;103479.56;5043949;28;20038;-73
2024/01/12 04:02:06;;;;;;;9.53;3.00;;;;;;;13.27;41.87;103491.88;5047998;28;20033;-73
2024/01/12 04:04:31;;;;;;;5.00;1.63;;;;;;;13.54;41.22;103490.69;5046717;28;20028;-73
2024/01/12 04:06:57;;;;;;;3.40;1.70;;;;;;;13.28;41.51;103488.38;5047840;28;20508;-73
2024/01/12 04:09:22;;;;;;;4.70;1.57;;;;;;;13.27;41.79;103486.63;5048680;28;20470;-73
2024/01/12 04:11:47;;;;;;;7.20;2.03;;;;;;;13.51;41.37;103486.25;5051494;28;20028;-73
2024/01/12 04:14:13;;;;;;;7.60;2.80;;;;;;;13.53;41.24;103500.31;5052674;28;20499;-72
2024/01/12 04:16:38;;;;;;;2.77;1.63;;;;;;;13.62;40.97;103494.34;5051724;28;20044;-73
2024/01/12 04:19:04;;;;;;;3.10;1.70;;;;;;;13.57;41.29;103491.66;5051110;28;20025;-73
2024/01/12 04:21:29;;;;;;;9.63;1.90;;;;;;;13.39;41.59;103496.50;5051752;28;20348;-73
2024/01/12 04:23:55;;;;;;;3.57;1.57;;;;;;;13.02;42.23;103500.94;5050426;28;20120;-73
2024/01/12 04:26:20;;;;;;;5.43;1.50;;;;;;;13.27;41.83;103502.38;5050714;28;20071;-73
2024/01/12 04:28:46;;;;;;;8.80;1.83;;;;;;;13.34;41.76;103504.28;5049928;28;20055;-73
2024/01/12 04:31:11;;;;;;;6.13;2.07;;;;;;;13.34;40.90;103499.03;5049976;28;20020;-72
2024/01/12 04:33:36;;;;;;;7.20;1.80;;;;;;;14.10;40.20;103503.13;5050308;28;20151;-73
2024/01/12 04:36:05;;;;;;;3.80;1.77;;;;;;;13.37;41.63;103503.50;5050981;28;20024;-73
2024/01/12 04:38:30;;;;;;;4.50;1.73;;;;;;;13.17;41.88;103505.66;5050486;28;20329;-73
2024/01/12 04:40:55;;;;;;;12.63;2.57;;;;;;;13.02;42.32;103507.09;5050920;28;20107;-73
2024/01/12 04:43:21;;;;;;;6.73;1.40;;;;;;;12.78;42.47;103503.91;5049577;28;20035;-73
2024/01/12 04:45:46;;;;;;;5.13;2.13;;;;;;;12.25;43.66;103507.88;5051773;28;20102;-73
2024/01/12 04:48:12;;;;;;;5.50;2.03;;;;;;;12.51;43.55;103502.41;5050221;28;20036;-73
2024/01/12 04:50:37;;;;;;;9.67;1.63;;;;;;;12.75;42.67;103495.94;5049287;28;20143;-73
2024/01/12 04:53:02;;;;;;;2.40;1.80;;;;;;;13.39;41.50;103486.00;5050063;28;20025;-73
2024/01/12 04:55:29;;;;;;;8.50;1.93;;;;;;;13.07;41.84;103489.69;5050426;28;20025;-73
2024/01/12 04:57:54;;;;;;;6.47;1.70;;;;;;;13.02;42.05;103491.34;5049922;28;20025;-72
2024/01/12 05:00:20;;;;;;;8.27;2.20;;;;;;;12.16;44.05;103484.06;5051624;28;20032;-73
2024/01/12 05:02:46;;;;;;;4.77;1.63;;;;;;;12.93;42.56;103475.38;5051641;28;20561;-73
2024/01/12 05:05:12;;;;;;;4.40;1.63;;;;;;;12.98;42.31;103479.00;5051115;28;20167;-73
2024/01/12 05:07:37;;;;;;;2.27;1.77;;;;;;;13.05;42.25;103475.66;5051498;28;20512;-72
2024/01/12 05:10:04;;;;;;;5.50;1.97;;;;;;;13.06;42.50;103477.44;5047243;28;20079;-72
2024/01/12 05:12:29;;;;;;;6.17;1.83;;;;;;;13.17;41.96;103482.00;5045235;28;20076;-73
2024/01/12 05:14:55;;;;;;;10.10;2.13;;;;;;;13.44;41.38;103483.50;5047014;28;20106;-73
2024/01/12 05:17:20;;;;;;;5.00;1.60;;;;;;;12.95;42.37;103491.16;5046166;28;20502;-72
2024/01/12 05:19:45;;;;;;;8.47;2.10;;;;;;;12.73;42.85;103499.44;5048028;28;20494;-72
2024/01/12 05:22:11;;;;;;;4.20;1.80;;;;;;;12.81;42.65;103496.09;5049098;28;20037;-72
2024/01/12 05:24:37;;;;;;;7.57;2.30;;;;;;;13.04;41.93;103489.63;5049631;28;20036;-73
2024/01/12 05:27:03;;;;;;;8.03;2.93;;;;;;;13.33;42.03;103494.63;5049588;28;20021;-72
2024/01/12 05:29:29;;;;;;;3.87;2.10;;;;;;;13.67;41.31;103492.72;5049024;28;20031;-73
2024/01/12 05:31:54;;;;;;;8.77;2.70;;;;;;;13.28;42.03;103496.25;5049933;28;20240;-72
2024/01/12 05:34:20;;;;;;;12.10;4.83;;;;;;;13.77;40.81;103500.78;5049210;28;20021;-73
2024/01/12 05:36:45;;;;;;;10.30;6.17;;;;;;;13.24;41.83;103504.91;5050954;28;20135;-73
2024/01/12 05:39:11;;;;;;;7.80;3.30;;;;;;;13.04;42.20;103502.75;5049443;28;20017;-73
2024/01/12 05:41:36;;;;;;;12.23;4.23;;;;;;;12.82;42.64;103505.75;5049013;28;20029;-73
2024/01/12 05:44:02;;;;;;;5.90;3.23;;;;;;;12.81;42.67;103506.59;5049757;28;20024;-73
2024/01/12 05:46:27;;;;;;;8.97;3.10;;;;;;;12.93;42.22;103506.88;5050522;28;20053;-73
2024/01/12 05:48:53;;;;;;;4.07;2.50;;;;;;;12.69;42.73;103502.84;5049543;28;20029;-72
2024/01/12 05:51:18;;;;;;;2.63;2.33;;;;;;;13.11;41.98;103497.66;5048434;28;20025;-73
2024/01/12 05:53:44;;;;;;;4.33;2.90;;;;;;;12.84;42.67;103504.03;5033716;28;20559;-72
2024/01/12 05:56:09;;;;;;;13.40;2.90;;;;;;;12.44;43.15;103495.22;5049423;28;20033;-72
2024/01/12 05:58:35;;;;;;;6.77;3.77;;;;;;;12.23;43.74;103501.72;5048552;28;20052;-73
2024/01/12 06:01:00;;;;;;;8.17;3.00;;;;;;;12.70;43.02;103508.97;5045287;28;20453;-72
2024/01/12 06:03:29;;;;;;;4.60;2.63;;;;;;;12.88;42.34;103498.88;5049166;28;20028;-73
2024/01/12 06:05:55;;;;;;;6.43;2.90;;;;;;;13.09;42.00;103491.47;5051071;28;20028;-73
2024/01/12 06:08:20;;;;;;;7.87;2.43;;;;;;;13.36;41.14;103502.59;5048203;28;20025;-73
2024/01/12 06:10:46;;;;;;;6.27;2.57;;;;;;;12.61;42.95;103508.75;5048477;28;20078;-72
2024/01/12 06:13:12;;;;;;;7.23;2.67;;;;;;;12.64;42.97;103509.72;5050032;28;20029;-72
2024/01/12 06:15:37;;;;;;;9.33;3.13;;;;;;;12.77;42.80;103507.38;5048149;28;20112;-73
2024/01/12 06:18:03;;;;;;;6.03;2.73;;;;;;;12.92;42.44;103494.59;5050616;28;20060;-73
2024/01/12 06:20:29;;;;;;;7.33;3.43;;;;;;;13.37;41.43;103499.13;5048401;28;20481;-72
2024/01/12 06:22:55;;;;;;;4.90;2.97;;;;;;;13.05;41.75;103504.53;5048244;28;20032;-73
2024/01/12 06:25:20;;;;;;;3.30;2.17;;;;;;;12.92;42.11;103494.59;5049428;28;20048;-72
2024/01/12 06:27:45;;;;;;;6.17;3.00;;;;;;;12.66;42.79;103505.38;5047571;28;20499;-73
2024/01/12 06:30:11;;;;;;;6.13;2.40;;;;;;;12.95;41.89;103499.91;5047605;28;20472;-73
2024/01/12 06:32:38;;;;;;;6.23;2.93;;;;;;;12.51;43.25;103512.88;5049336;28;20409;-72
2024/01/12 06:35:04;;;;;;;11.93;4.33;;;;;;;13.07;42.16;103494.06;5048864;28;20017;-72
2024/01/12 06:37:30;;;;;;;12.33;4.20;;;;;;;12.81;42.96;103501.34;5047276;28;20075;-72
2024/01/12 06:39:57;;;;;;;12.83;4.00;;;;;;;13.22;42.28;103504.03;5048464;28;20050;-73
2024/01/12 06:42:23;;;;;;;5.37;3.93;;;;;;;13.40;41.72;103493.91;5049766;28;20016;-73
2024/01/12 06:44:48;;;;;;;12.47;3.43;;;;;;;13.32;41.70;103500.72;5047344;28;20031;-72
2024/01/12 06:47:14;;;;;;;6.37;3.50;;;;;;;13.69;40.95;103495.38;5048629;28;20028;-73
2024/01/12 06:49:46;;;;;;;7.80;3.07;;;;;;;14.08;40.52;103503.09;5044308;28;20021;-71
2024/01/12 06:52:12;;;;;;;10.57;3.70;;;;;;;13.47;41.52;103500.19;5028957;28;20499;-71
2024/01/12 06:54:40;;;;;;;6.40;4.33;;;;;;;13.74;40.99;103507.75;5047772;28;20116;-71
2024/01/12 06:57:06;;;;;;;15.90;8.77;;;;;;;13.68;41.17;103510.25;5047990;28;20040;-71
2024/01/12 06:59:31;;;;;;;21.67;6.73;;;;;;;13.87;40.58;103505.34;5047068;28;20032;-71
2024/01/12 07:01:56;;;;;;;9.37;4.43;;;;;;;13.72;40.67;103505.94;5050087;28;20029;-71
2024/01/12 07:04:22;;;;;;;20.80;8.10;;;;;;;13.48;41.37;103511.59;5047511;28;20055;-71
2024/01/12 07:06:47;;;;;;;22.40;8.07;;;;;;;13.26;42.05;103511.13;5043587;28;20025;-71
2024/01/12 07:09:14;;;;;;;15.30;5.23;;;;;;;13.22;41.98;103511.91;5043446;28;20036;-71
2024/01/12 07:11:41;;;;;;;10.37;4.20;;;;;;;13.82;40.71;103505.25;5047341;28;20034;-71
2024/01/12 07:14:07;;;;;;;5.17;2.63;;;;;;;12.76;42.65;103509.09;5049339;28;20086;-71
2024/01/12 07:16:32;;;;;;;7.93;2.43;;;;;;;13.21;41.79;103502.25;5049089;28;20029;-71
2024/01/12 07:18:57;;;;;;;3.93;2.60;;;;;;;13.44;41.41;103494.00;5046628;28;20031;-71
2024/01/12 07:21:22;;;;;;;7.80;3.20;;;;;;;13.57;40.70;103493.38;5047129;28;20032;-71
2024/01/12 07:23:49;;;;;;;4.43;2.80;;;;;;;13.50;41.00;103494.97;5047895;28;20260;-71
2024/01/12 07:26:14;;;;;;;7.77;2.93;;;;;;;12.93;42.02;103496.38;5048276;28;20114;-71
2024/01/12 07:28:40;;;;;;;19.57;4.80;;;;;;;13.30;40.99;103501.53;5047896;28;20477;-71
2024/01/12 07:31:05;;;;;;;5.83;2.73;;;;;;;13.35;41.05;103490.34;5048026;28;20024;-71
2024/01/12 07:33:30;;;;;;;6.40;3.47;;;;;;;13.09;41.64;103487.09;5046169;28;20123;-70
2024/01/12 07:35:56;;;;;;;14.20;5.07;;;;;;;12.52;43.54;103498.94;5062902;28;20017;-71
2024/01/12 07:38:21;;;;;;;16.10;5.43;;;;;;;12.50;42.98;103505.88;5046213;28;20017;-71
2024/01/12 07:40:47;;;;;;;10.83;4.10;;;;;;;12.19;44.40;103494.63;5046302;28;20025;-71
2024/01/12 07:43:12;;;;;;;19.03;5.40;;;;;;;12.76;43.34;103502.97;5047696;28;20032;-71
2024/01/12 07:45:37;;;;;;;14.27;5.37;;;;;;;13.04;42.48;103489.63;5052253;28;20183;-72
2024/01/12 07:48:03;;;;;;;10.50;4.33;;;;;;;13.06;42.11;103487.94;5050867;28;20032;-71
2024/01/12 07:50:29;;;;;;;12.10;4.00;;;;;;;13.44;41.97;103478.25;5048562;28;20028;-72
2024/01/12 07:52:55;;;;;;;9.53;4.97;;;;;;;13.00;42.53;103485.16;5049952;28;20036;-71
2024/01/12 07:55:20;;;;;;;12.53;3.73;;;;;;;13.15;42.35;103491.63;5049823;28;20027;-71
2024/01/12 07:57:45;;;;;;;14.93;3.57;;;;;;;12.62;43.47;103490.41;5050151;28;20028;-71
2024/01/12 08:00:11;;;;;;;10.10;4.10;;;;;;;13.28;41.91;103492.75;5047747;28;20029;-72
2024/01/12 08:02:36;;;;;;;10.40;3.90;;;;;;;13.34;42.02;103493.78;5047618;28;20107;-71
2024/01/12 08:05:02;;;;;;;7.07;4.37;;;;;;;13.50;41.47;103494.09;5049439;28;20451;-72
2024/01/12 08:07:27;;;;;;;8.07;4.40;;;;;;;13.64;41.22;103497.00;5048986;28;20040;-72
2024/01/12 08:09:52;;;;;;;10.30;3.73;;;;;;;13.69;41.44;103496.25;5049909;28;20032;-71
2024/01/12 08:12:19;;;;;;;6.07;3.23;;;;;;;13.84;40.77;103505.28;5051456;28;20431;-72
2024/01/12 08:14:44;;;;;;;7.47;2.83;;;;;;;13.32;41.61;103505.97;5050387;28;20112;-71
2024/01/12 08:17:10;;;;;;;15.30;4.17;;;;;;;13.63;41.13;103505.75;5049987;28;20112;-72
2024/01/12 08:19:36;;;;;;;9.10;4.17;;;;;;;13.44;41.58;103509.78;5050733;28;20017;-72
2024/01/12 08:22:01;;;;;;;12.43;5.10;;;;;;;13.67;41.52;103507.56;5049318;28;20392;-72
2024/01/12 08:24:26;;;;;;;8.63;3.37;;;;;;;13.38;41.86;103502.63;5050133;28;20395;-73
2024/01/12 08:26:52;;;;;;;5.33;3.23;;;;;;;13.47;41.56;103494.94;5052250;28;20021;-72
2024/01/12 08:29:17;;;;;;;9.93;3.50;;;;;;;13.85;40.79;103507.06;5048048;28;20113;-72
2024/01/12 08:31:43;;;;;;;9.10;3.33;;;;;;;13.53;41.31;103512.56;5052002;28;20429;-72
2024/01/12 08:34:08;;;;;;;8.97;3.30;;;;;;;13.53;41.58;103509.94;5038960;28;20344;-73
2024/01/12 08:36:34;;;;;;;12.53;2.90;;;;;;;13.58;41.45;103510.91;5044582;28;20028;-73
2024/01/12 08:38:59;;;;;;;6.63;3.37;;;;;;;13.44;41.74;103515.03;5050883;28;20423;-73
2024/01/12 08:41:25;;;;;;;5.33;2.10;;;;;;;13.76;41.13;103513.03;5034668;28;20036;-72
2024/01/12 08:43:52;;;;;;;5.87;3.63;;;;;;;13.39;41.69;103518.44;5047992;28;20059;-72
2024/01/12 08:46:18;;;;;;;10.37;3.30;;;;;;;13.30;42.26;103517.28;5046962;28;20061;-73
2024/01/12 08:48:44;;;;;;;9.60;3.07;;;;;;;13.43;41.93;103513.25;5035861;28;20037;-73
2024/01/12 08:51:09;;;;;;;15.50;3.73;;;;;;;13.36;42.05;103513.09;5051555;28;20096;-73
2024/01/12 08:53:35;;;;;;;4.73;2.60;;;;;;;12.88;43.08;103524.25;5051429;28;20033;-73
2024/01/12 08:56:00;;;;;;;4.43;2.33;;;;;;;13.14;42.72;103521.34;5050986;28;20404;-73
2024/01/12 08:58:25;;;;;;;14.40;3.57;;;;;;;13.22;42.65;103525.91;5047578;28;20025;-73
2024/01/12 09:00:51;;;;;;;9.47;2.43;;;;;;;13.20;42.80;103522.38;5050555;28;20035;-73
2024/01/12 09:03:17;;;;;;;6.37;2.30;;;;;;;13.52;42.02;103513.44;5050367;28;20031;-73
2024/01/12 09:05:42;;;;;;;8.73;2.27;;;;;;;13.27;42.30;103509.34;5046515;28;20029;-73
2024/01/12 09:08:07;;;;;;;8.43;1.90;;;;;;;13.09;42.96;103507.22;5030740;28;20484;-73
2024/01/12 09:10:33;;;;;;;12.13;2.47;;;;;;;13.73;41.77;103503.31;5045611;28;20029;-73
2024/01/12 09:12:59;;;;;;;4.33;2.60;;;;;;;13.13;42.81;103511.69;5050981;28;20047;-73
2024/01/12 09:15:24;;;;;;;11.77;3.30;;;;;;;12.88;43.40;103519.00;5050517;28;20074;-73
2024/01/12 09:17:49;;;;;;;6.77;2.20;;;;;;;13.76;41.58;103509.50;5050674;28;20035;-73
2024/01/12 09:20:15;;;;;;;9.93;3.30;;;;;;;13.56;41.63;103504.75;5050023;28;20500;-73
2024/01/12 09:22:40;;;;;;;20.57;5.87;;;;;;;14.03;41.18;103507.41;5050174;28;20025;-73
2024/01/12 09:25:06;;;;;;;5.27;3.00;;;;;;;12.85;43.18;103514.56;5047215;28;20025;-73
2024/01/12 09:27:32;;;;;;;7.00;2.30;;;;;;;13.13;42.53;103503.81;5049659;28;20021;-73
2024/01/12 09:29:57;;;;;;;12.13;1.97;;;;;;;13.16;42.53;103503.88;5049680;28;20029;-72
2024/01/12 09:32:22;;;;;;;10.80;2.23;;;;;;;12.09;44.53;103509.22;5045643;28;20100;-73
2024/01/12 09:34:48;;;;;;;9.33;2.40;;;;;;;13.37;42.46;103498.25;5042673;28;20055;-73
2024/01/12 09:37:13;;;;;;;5.87;3.13;;;;;;;13.44;42.42;103494.88;5045626;28;20374;-73
2024/01/12 09:39:39;;;;;;;13.10;2.80;;;;;;;13.32;42.03;103505.97;5042880;28;20032;-73
2024/01/12 09:42:08;;;;;;;12.53;3.17;;;;;;;12.55;43.79;103509.50;5048952;28;20025;-73
2024/01/12 09:44:37;;;;;;;14.50;2.63;;;;;;;13.31;42.00;103512.09;5048093;28;20383;-73
2024/01/12 09:47:02;;;;;;;8.43;2.23;;;;;;;13.43;42.08;103513.25;5047321;28;20029;-73
2024/01/12 09:49:31;;;;;;;11.70;2.37;;;;;;;13.98;41.09;103511.69;5047154;28;20404;-73
2024/01/12 09:52:02;;;;;;;12.83;2.07;;;;;;;13.98;41.11;103514.31;5047946;28;20075;-73
2024/01/12 09:54:31;;;;;;;6.85;2.45;;;;;;;13.82;41.33;103513.16;5046756;28;20029;-73
2024/01/12 09:56:56;;;;;;;7.50;3.23;;;;;;;12.96;42.99;103522.72;5037111;28;20022;-72
2024/01/12 09:59:23;;;;;;;8.17;2.87;;;;;;;13.20;42.34;103513.59;5047618;28;20439;-72
2024/01/12 10:01:49;;;;;;;15.47;2.77;;;;;;;13.85;40.90;103512.31;5026846;28;20369;-72
2024/01/12 10:04:16;;;;;;;7.60;2.27;;;;;;;12.73;43.11;103525.69;5007107;28;20045;-72
2024/01/12 10:06:42;;;;;;;9.00;2.50;;;;;;;13.30;41.93;103512.94;5045308;28;20489;-72
2024/01/12 10:09:08;;;;;;;12.83;2.40;;;;;;;13.13;42.58;103514.31;5065314;28;20021;-72
2024/01/12 10:11:34;;;;;;;15.73;2.20;;;;;;;12.80;42.93;103520.56;5047641;28;20033;-72
2024/01/12 10:13:59;;;;;;;13.07;1.90;;;;;;;13.52;41.66;103522.19;5049085;28;20078;-72
2024/01/12 10:16:29;;;;;;;4.93;1.90;;;;;;;13.96;40.54;103521.28;5049541;28;20433;-71
2024/01/12 10:19:03;;;;;;;6.57;1.87;;;;;;;13.88;41.08;103520.25;5048449;28;20029;-73
2024/01/12 10:21:29;;;;;;;9.20;1.57;;;;;;;13.29;42.16;103526.94;5045870;28;20032;-73
2024/01/12 10:24:02;;;;;;;9.53;1.30;;;;;;;13.73;42.24;103523.47;5039415;28;20542;-72
2024/01/12 10:26:31;;;;;;;6.27;1.83;;;;;;;13.56;41.50;103515.28;5042470;28;20033;-73
2024/01/12 10:29:01;;;;;;;3.50;1.23;;;;;;;13.95;40.80;103505.50;5047404;28;20029;-73
2024/01/12 10:31:27;;;;;;;3.43;1.13;;;;;;;13.37;41.72;103500.88;5048349;28;20033;-72
2024/01/12 10:33:54;;;;;;;10.40;1.27;;;;;;;12.81;42.79;103514.47;5047735;28;20492;-72
2024/01/12 10:36:23;;;;;;;8.00;1.63;;;;;;;12.68;43.63;103506.31;5040099;28;21914;-73
2024/01/12 10:38:50;;;;;;;2.60;0.90;;;;;;;12.74;43.50;103500.31;5044564;28;20545;-72
2024/01/12 10:41:20;;;;;;;3.47;1.17;;;;;;;12.66;43.50;103508.00;5044724;28;20055;-72
2024/01/12 10:43:51;;;;;;;2.33;1.13;;;;;;;12.54;44.00;103497.22;5044777;28;20035;-72
2024/01/12 10:46:25;;;;;;;4.73;1.37;;;;;;;13.36;42.45;103492.09;5047331;28;20515;-72
2024/01/12 10:49:05;;;;;;;11.83;1.33;;;;;;;14.06;40.87;103481.13;5048673;28;20021;-72
2024/01/12 10:51:50;;;;;;;10.67;1.70;;;;;;;13.40;42.09;103478.16;5044177;28;20299;-72
2024/01/12 10:54:47;;;;;;;3.90;1.00;;;;;;;13.98;41.10;103480.13;5045376;28;20036;-72
2024/01/12 10:57:14;;;;;;;15.53;2.73;;;;;;;13.08;42.84;103477.47;5021089;28;20037;-72
2024/01/12 10:59:41;;;;;;;6.60;2.67;;;;;;;13.79;41.05;103470.13;5048197;28;20033;-71
2024/01/12 11:02:11;;;;;;;11.70;2.67;;;;;;;14.19;40.70;103466.47;5045842;28;20158;-72
2024/01/12 11:04:37;;;;;;;5.00;2.17;;;;;;;13.56;41.62;103470.59;5036186;28;20048;-72
2024/01/12 11:07:04;;;;;;;7.83;1.90;;;;;;;13.04;42.66;103473.88;5044883;28;20127;-72
2024/01/12 11:09:29;;;;;;;5.27;1.30;;;;;;;13.60;41.88;103468.91;5046663;28;20416;-71
2024/01/12 11:12:21;;;;;;;2.70;1.30;;;;;;;14.96;39.38;103461.53;5047181;28;20029;-72
2024/01/12 11:14:46;;;;;;;2.60;0.90;;;;;;;14.36;40.17;103464.09;5025652;28;20036;-72
2024/01/12 11:17:12;;;;;;;6.37;1.20;;;;;;;15.01;38.83;103467.72;5045315;28;20389;-71